Accueil
METAR-TAF:

METAR-TAF

Aéroports :

North Bay, Ontario, Canada

latitude: 46-21N, longitude: 079-26W, altitude: 358 m

Observation

Le bulletin a été fait il y a 22 minutes, à 03:00 UTC
Vent 7 kt de nord
Température 16°C
Humidité 88%
Pression 1017 hPa
Visibilité: 14.5 km
Ciel clair

METAR: CYYB 190300Z AUTO 36007KT 9SM CLR 16/14 A3004 RMK SLP176 DENSITY ALT 1500FT

Heure: 23:22 (03:22 UTC)

Prévision

Le bulletin a été fait il y a 1 heure et 43 minutes, à 01:39 UTC
Prévision valable du 19 à 02 UTC au 19 à 14 UTC
Vent 3 kt de direction variable
Visibilité: 10 km
Quelques nuages à une hauteur de 20000 ft

TAF: CYYB 190139Z 1902/1914 VRB03KT P6SM FEW200 RMK NXT FCST BY 190800Z

Observations et prévisions météorologiques de plus de 4000 aéroports (messages METAR et TAF).

Les stations disponibles sont représentées par des disques jaunes et rouges sur la carte.

Passer la souris dessus pour voir le nom de la station.

Cliquer dessus pour voir les observations et prévisions météorologiques.

Pour changer de carte: cliquez sur les boutons verts avec une croix noire pour zoomer, sur le bouton vert avec un tiret pour effectuer un zoom arrière, ou sur les flèches vertes pour les cartes adjacentes.


METAR-TAF: